« Back
NWS Peachtree City, Ga » Text Product » MCN Terminal Aerodrome Forecast


Printer-friendly Version
Current Version              Previous Versions:   1  2  3  4  5  6  7  8  9  

Terminal Aerodrome Forecast

399
FTUS42 KFFC 111121
TAFMCN
TAF
KMCN 111121Z 1112/1212 00000KT P6SM SKC
     FM111500 23004KT P6SM SCT050
     FM112200 34005KT P6SM SCT040 BKN100
     FM120100 03003KT P6SM BKN040
     FM121100 07004KT P6SM BKN030=

USA.gov is the U.S. government's official web portal to all federal, state and local government web resources and services.